Mount Lemmon, AZ

1:58 AM MST on September 17, 2014 (GMT -0700)
Davis-Monthan Air Force Base | Change Station
CLOSE
Current Station
Airport
Location: Tucson Davis Monthan,
Elevation: 2703 ft
Nearby Weather Stations

Elev 2703 ft 32.17 °N, 110.88 °W | Updated 1 hour ago

Rain
Rain
74 °F
Feels Like 74 °F
N
7
Wind Variable Wind from East

Today
High -- | Low -- °F
--% Chance of Precip.
Yesterday
High -- | Low -- °F
Precip. -- in
6:08 AM 6:26 PM
Last Quarter, 38% visible
Pressure 29.78 in
Visibility 10.0 miles
Clouds Clear
Dew Point 68 °F
Humidity 84%
Rainfall 0.01 in
Snow Depth Not available.
UV 0 out of 12
Pollen 3.80 out of 12
Air Quality Not available.
Flu Activity Not available.
METAR KDMA 170758Z AUTO 08006KT 10SM CLR 23/20 A2990 RMK AO2 RAB0711DZE0711B0742E0748 SLP085 P0001 T02310203 $

More Conditions Fewer Conditions

Pressure 29.78 in
Visibility 10.0 miles
Clouds Clear
Dew Point 68 °F
Humidity 84%
Rainfall 0.01 in
Snow Depth Not available.
UV 0 out of 12
Pollen 3.80 out of 12
Air Quality Not available.
Flu Activity Not available.
METAR KDMA 170758Z AUTO 08006KT 10SM CLR 23/20 A2990 RMK AO2 RAB0711DZE0711B0742E0748 SLP085 P0001 T02310203 $

More Conditions Fewer Conditions

10-Day Weather Forecast

Almanac

Astronomy

Sep. 17, 2014 Rise Set
Actual Time 6:08 AM MST 6:26 PM MST
Civil Twilight 5:43 AM MST 6:51 PM MST
Nautical Twilight 5:14 AM MST 7:19 PM MST
Astronomical Twilight 4:45 AM MST 7:48 PM MST
Moon 12:25 AM MST 2:25 PM MST
Length of Visible Light 13h 07m
Length of Day
12h 18m
Tomorrow will be 1m 58s shorter.
Last Quarter, 38% of the Moon is Illuminated
Today
Last Quarter
Sep 24
New
Oct 1
First Quarter
Oct 8
Full
Oct 15
Last Quarter

Today's Extremes

State Highs State Lows

Community

WunderPhotos

Upload Photos

1,753,990 photos uploaded!

Nearby

Snow Depth

Station Depth Elevation
Beaver Head 26 in 7990 ft
Coronado Trail 0 in 8400 ft
Happy Jack 0 in 7630 ft
Workman Creek 1 in 6900 ft
White Horse Lake 0 in 7180 ft

Earthquake Activity

City Distance Mag. Time & Date
Lordsburg, New Mexico 97 miles 3.5 4:55 AM MST
2014-09-15
Minimum magnitude displayed is 2.5.

Coastal Water Temperatures

Place Temperature
No Stations Reporting

Nearby Weather Stations